Time;durP1;ratioP1;P1;durP2;ratioP2;P2;SDS_P1;SDS_P2;PMS_P1;PMS_P2;Temp;Humidity;BMP_temperature;BMP_pressure;BME280_temperature;BME280_humidity;BME280_pressure;Samples;Min_cycle;Max_cycle;Signal;HPM_P1;HPM_P2
2023/03/17 00:00:53;;;;;;;1.47;1.20;;;13.20;99.90;;;;;;5046049;28;20212;-31
2023/03/17 00:03:25;;;;;;;1.40;1.10;;;13.20;99.90;;;;;;5049103;28;20199;-31
2023/03/17 00:05:57;;;;;;;1.60;1.10;;;13.20;99.90;;;;;;5045225;28;20762;-32
2023/03/17 00:08:34;;;;;;;2.10;1.30;;;13.20;99.90;;;;;;5045756;28;20572;-32
2023/03/17 00:11:02;;;;;;;1.97;1.17;;;13.20;99.90;;;;;;5036132;28;20219;-32
2023/03/17 00:13:29;;;;;;;1.23;1.00;;;13.10;99.90;;;;;;5046029;28;20204;-32
2023/03/17 00:16:06;;;;;;;2.63;1.23;;;13.10;99.90;;;;;;5045411;28;20849;-32
2023/03/17 00:18:34;;;;;;;2.40;1.33;;;13.10;99.90;;;;;;5044094;28;20323;-32
2023/03/17 00:21:03;;;;;;;2.80;1.23;;;13.10;99.90;;;;;;5046760;28;20204;-32
2023/03/17 00:23:34;;;;;;;1.37;1.10;;;13.10;99.90;;;;;;5043416;28;20209;-32
2023/03/17 00:26:03;;;;;;;2.27;1.40;;;13.10;99.90;;;;;;5060477;28;20642;-32
2023/03/17 00:28:31;;;;;;;2.03;1.17;;;13.00;99.90;;;;;;5044974;28;20236;-31
2023/03/17 00:31:10;;;;;;;2.33;1.20;;;13.00;99.90;;;;;;5049834;28;20576;-31
2023/03/17 00:33:40;;;;;;;1.93;1.10;;;13.00;99.90;;;;;;5045767;28;20208;-32
2023/03/17 00:36:12;;;;;;;2.23;1.20;;;13.00;99.90;;;;;;5044577;28;20339;-32
2023/03/17 00:38:42;;;;;;;1.97;1.07;;;13.00;99.90;;;;;;5045032;28;20208;-32
2023/03/17 00:41:11;;;;;;;1.23;0.97;;;12.90;99.90;;;;;;5054480;28;20200;-31
2023/03/17 00:43:39;;;;;;;2.87;1.30;;;12.90;99.90;;;;;;5044602;28;20675;-31
2023/03/17 00:46:36;;;;;;;3.70;1.40;;;12.90;99.90;;;;;;5043940;28;20220;-31
2023/03/17 00:49:22;;;;;;;2.50;1.20;;;12.90;99.90;;;;;;5044311;28;20204;-31
2023/03/17 00:51:50;;;;;;;1.53;1.00;;;12.80;99.90;;;;;;5039978;28;20500;-32
2023/03/17 00:54:19;;;;;;;2.07;1.30;;;12.80;99.90;;;;;;5041049;28;20294;-31
2023/03/17 00:56:52;;;;;;;2.50;1.33;;;12.80;99.90;;;;;;5043119;28;20240;-30
2023/03/17 00:59:32;;;;;;;2.00;0.90;;;12.80;99.90;;;;;;5048786;28;20204;-31
2023/03/17 01:01:59;;;;;;;2.63;1.10;;;12.80;99.90;;;;;;5044595;28;20204;-31
2023/03/17 01:04:26;;;;;;;2.27;1.20;;;12.80;99.90;;;;;;5047259;28;20212;-31
2023/03/17 01:06:58;;;;;;;1.53;1.10;;;12.70;99.90;;;;;;5043028;28;20272;-31
2023/03/17 01:09:28;;;;;;;1.47;0.90;;;12.70;99.90;;;;;;5044734;28;20281;-31
2023/03/17 01:11:55;;;;;;;1.83;1.20;;;12.70;99.90;;;;;;5044570;28;20278;-31
2023/03/17 01:14:25;;;;;;;6.83;1.50;;;12.80;99.90;;;;;;5046452;28;20311;-31
2023/03/17 01:16:53;;;;;;;2.20;1.20;;;12.70;99.90;;;;;;5044730;28;20335;-32
2023/03/17 01:19:23;;;;;;;1.90;1.40;;;12.70;99.90;;;;;;5046765;28;20314;-30
2023/03/17 01:21:55;;;;;;;1.40;1.20;;;12.70;99.90;;;;;;5048006;28;20684;-31
2023/03/17 01:24:25;;;;;;;1.23;0.90;;;12.70;99.90;;;;;;5050952;28;20200;-31
2023/03/17 01:26:53;;;;;;;2.80;1.33;;;12.60;99.90;;;;;;5049999;28;20315;-31
2023/03/17 01:29:20;;;;;;;1.70;1.10;;;12.60;99.90;;;;;;5049133;28;20327;-31
2023/03/17 01:31:49;;;;;;;2.67;1.20;;;12.70;99.90;;;;;;5048779;28;20216;-31
2023/03/17 01:34:22;;;;;;;2.30;1.40;;;12.60;99.90;;;;;;5051650;28;20273;-31
2023/03/17 01:36:52;;;;;;;2.53;1.30;;;12.60;99.90;;;;;;5049904;28;20239;-30
2023/03/17 01:39:19;;;;;;;2.33;1.50;;;12.60;99.90;;;;;;5053393;28;20213;-31
2023/03/17 01:41:46;;;;;;;1.77;1.35;;;12.60;99.90;;;;;;5049519;28;20284;-32
2023/03/17 01:44:17;;;;;;;1.70;1.37;;;12.60;99.90;;;;;;5044993;28;20582;-31
2023/03/17 01:46:46;;;;;;;1.20;1.10;;;12.60;99.90;;;;;;5047126;28;20295;-30
2023/03/17 01:49:19;;;;;;;1.77;1.30;;;12.60;99.90;;;;;;5049251;28;20639;-31
2023/03/17 01:52:08;;;;;;;1.20;0.90;;;12.60;99.90;;;;;;5048431;28;20644;-31
2023/03/17 01:54:59;;;;;;;3.40;1.40;;;12.60;99.90;;;;;;5060532;28;20367;-31
2023/03/17 01:57:43;;;;;;;1.80;1.20;;;12.50;99.90;;;;;;5048182;28;20231;-31
2023/03/17 02:00:17;;;;;;;1.10;1.00;;;12.50;99.90;;;;;;5060002;28;20207;-32
2023/03/17 02:02:50;;;;;;;1.80;1.23;;;12.50;99.90;;;;;;5041602;28;20246;-31
2023/03/17 02:05:22;;;;;;;2.33;1.23;;;12.50;99.90;;;;;;5045596;28;20239;-31
2023/03/17 02:07:54;;;;;;;1.87;1.30;;;12.50;99.90;;;;;;5053980;28;20224;-31
2023/03/17 02:10:25;;;;;;;2.53;1.40;;;12.50;99.90;;;;;;5063216;28;20209;-31
2023/03/17 02:13:01;;;;;;;1.33;1.00;;;12.50;99.90;;;;;;5046866;28;20197;-32
2023/03/17 02:15:40;;;;;;;2.20;1.20;;;12.50;99.90;;;;;;5044274;28;20695;-30
2023/03/17 02:18:08;;;;;;;2.60;1.30;;;12.50;99.90;;;;;;5042601;28;20230;-32
2023/03/17 02:20:37;;;;;;;3.00;1.17;;;12.50;99.90;;;;;;5047417;28;20679;-31
2023/03/17 02:23:10;;;;;;;1.70;1.20;;;12.50;99.90;;;;;;5062433;28;20299;-31
2023/03/17 02:25:43;;;;;;;1.93;1.10;;;12.50;99.90;;;;;;5056527;28;20204;-31
2023/03/17 02:28:22;;;;;;;2.57;0.80;;;12.50;99.90;;;;;;5056873;28;20714;-31
2023/03/17 02:30:52;;;;;;;1.47;1.10;;;12.50;99.90;;;;;;5045053;28;20293;-31
2023/03/17 02:33:19;;;;;;;1.83;1.10;;;12.40;99.90;;;;;;5033530;28;20228;-31
2023/03/17 02:35:46;;;;;;;1.53;1.10;;;12.40;99.90;;;;;;5047710;28;20255;-30
2023/03/17 02:38:16;;;;;;;1.60;0.90;;;12.40;99.90;;;;;;5047798;28;20235;-30
2023/03/17 02:40:45;;;;;;;3.20;1.17;;;12.40;99.90;;;;;;5047093;28;20298;-32
2023/03/17 02:43:15;;;;;;;2.27;1.60;;;12.40;99.90;;;;;;5048535;28;20196;-31
2023/03/17 02:45:42;;;;;;;2.03;1.30;;;12.40;99.90;;;;;;5033622;28;20280;-31
2023/03/17 02:48:15;;;;;;;2.47;1.57;;;12.40;99.90;;;;;;5046507;28;20204;-30
2023/03/17 02:50:42;;;;;;;2.10;1.47;;;12.30;99.90;;;;;;5045641;28;20642;-31
2023/03/17 02:53:10;;;;;;;1.93;1.23;;;12.30;99.90;;;;;;5032321;28;20385;-30
2023/03/17 02:55:37;;;;;;;2.67;1.10;;;12.30;99.90;;;;;;5031058;28;20813;-31
2023/03/17 02:58:04;;;;;;;2.93;1.53;;;12.30;99.90;;;;;;5048213;28;20228;-30
2023/03/17 03:00:32;;;;;;;2.00;1.30;;;12.30;99.90;;;;;;5047194;28;20213;-31
2023/03/17 03:03:00;;;;;;;2.90;1.10;;;12.30;99.90;;;;;;5047815;28;20729;-32
2023/03/17 03:05:29;;;;;;;1.80;1.37;;;12.30;99.90;;;;;;5046839;28;20495;-31
2023/03/17 03:07:56;;;;;;;2.03;1.30;;;12.30;99.90;;;;;;5058336;28;20687;-31
2023/03/17 03:10:26;;;;;;;2.87;1.30;;;12.20;99.90;;;;;;5050024;28;20196;-31
2023/03/17 03:12:53;;;;;;;2.73;1.20;;;12.20;99.90;;;;;;5047380;28;20236;-32
2023/03/17 03:15:20;;;;;;;2.47;1.30;;;12.20;99.90;;;;;;5029151;28;20571;-32
2023/03/17 03:17:47;;;;;;;2.63;1.40;;;12.20;99.90;;;;;;5045506;28;20326;-31
2023/03/17 03:20:18;;;;;;;2.60;1.10;;;12.20;99.90;;;;;;5046058;28;20394;-31
2023/03/17 03:22:49;;;;;;;3.70;1.60;;;12.20;99.90;;;;;;5048657;28;20200;-32
2023/03/17 03:25:17;;;;;;;2.47;1.10;;;12.20;99.90;;;;;;5047146;28;20303;-32
2023/03/17 03:27:47;;;;;;;1.20;1.03;;;12.10;99.90;;;;;;5046074;28;20281;-31
2023/03/17 03:30:14;;;;;;;3.10;1.30;;;12.10;99.90;;;;;;5013034;28;20721;-31
2023/03/17 03:32:44;;;;;;;2.30;1.17;;;12.10;99.90;;;;;;5043260;28;20216;-31
2023/03/17 03:35:14;;;;;;;1.80;1.10;;;12.10;99.90;;;;;;5044461;28;20859;-32
2023/03/17 03:37:43;;;;;;;4.47;1.60;;;12.10;99.90;;;;;;5025368;28;20295;-32
2023/03/17 03:40:13;;;;;;;1.90;1.27;;;12.10;99.90;;;;;;5043701;28;20697;-31
2023/03/17 03:42:42;;;;;;;1.77;1.20;;;12.10;99.90;;;;;;5048814;28;20266;-31
2023/03/17 03:45:09;;;;;;;1.40;1.10;;;12.10;99.90;;;;;;5046792;28;20202;-32
2023/03/17 03:47:39;;;;;;;1.60;1.10;;;12.10;99.90;;;;;;5044298;28;20294;-32
2023/03/17 03:50:07;;;;;;;2.50;1.10;;;12.10;99.90;;;;;;5028228;28;20212;-31
2023/03/17 03:52:37;;;;;;;4.57;1.53;;;12.10;99.90;;;;;;5041401;28;20208;-31
2023/03/17 03:55:09;;;;;;;1.87;1.33;;;12.10;99.90;;;;;;5044613;28;20240;-31
2023/03/17 03:57:39;;;;;;;2.83;1.40;;;12.10;99.90;;;;;;5046364;28;20256;-31
2023/03/17 04:00:12;;;;;;;2.83;1.20;;;12.10;99.90;;;;;;5042919;28;20693;-31
2023/03/17 04:02:40;;;;;;;1.93;1.23;;;12.10;99.90;;;;;;5043492;28;20291;-31
2023/03/17 04:05:11;;;;;;;2.80;1.40;;;12.10;99.90;;;;;;5045443;28;20208;-31
2023/03/17 04:07:39;;;;;;;2.93;1.23;;;12.10;99.90;;;;;;5043630;28;20703;-32
2023/03/17 04:10:07;;;;;;;2.80;1.20;;;12.10;99.90;;;;;;5059361;28;20326;-31
2023/03/17 04:12:37;;;;;;;3.27;1.40;;;12.10;99.90;;;;;;5045469;28;20209;-31
2023/03/17 04:15:07;;;;;;;2.93;1.30;;;12.10;99.90;;;;;;5042187;28;20345;-31
2023/03/17 04:17:35;;;;;;;2.33;1.00;;;12.20;99.90;;;;;;5065495;28;20233;-31
2023/03/17 04:20:08;;;;;;;2.13;1.10;;;12.20;99.90;;;;;;5054764;28;20291;-31
2023/03/17 04:22:35;;;;;;;2.07;1.20;;;12.20;99.90;;;;;;5054644;28;20238;-32
2023/03/17 04:25:07;;;;;;;2.33;1.30;;;12.20;99.90;;;;;;5044098;28;20208;-31
2023/03/17 04:27:35;;;;;;;1.83;1.07;;;12.20;99.90;;;;;;5044464;28;20730;-31
2023/03/17 04:30:05;;;;;;;2.00;1.20;;;12.20;99.90;;;;;;5046321;28;20675;-31
2023/03/17 04:32:37;;;;;;;2.20;1.30;;;12.20;99.90;;;;;;5045982;28;20682;-31
2023/03/17 04:35:05;;;;;;;2.07;1.30;;;12.20;99.90;;;;;;5044360;28;20223;-31
2023/03/17 04:37:32;;;;;;;1.47;1.10;;;12.20;99.90;;;;;;5045934;28;20726;-30
2023/03/17 04:40:01;;;;;;;5.03;1.40;;;12.20;99.90;;;;;;5044679;28;20194;-31
2023/03/17 04:42:30;;;;;;;2.77;1.20;;;12.20;99.90;;;;;;5043913;28;20306;-31
2023/03/17 04:44:57;;;;;;;2.37;1.23;;;12.20;99.90;;;;;;5046805;28;20207;-32
2023/03/17 04:47:25;;;;;;;2.00;1.20;;;12.20;99.90;;;;;;5064516;28;20227;-31
2023/03/17 04:49:52;;;;;;;3.10;1.20;;;12.20;99.90;;;;;;5064325;28;20557;-31
2023/03/17 04:52:19;;;;;;;2.13;1.17;;;12.20;99.90;;;;;;5064630;28;20194;-31
2023/03/17 04:54:48;;;;;;;2.57;1.17;;;12.20;99.90;;;;;;5057997;28;20245;-32
2023/03/17 04:57:15;;;;;;;4.10;1.70;;;12.20;99.90;;;;;;5047472;28;20602;-31
2023/03/17 04:59:43;;;;;;;3.45;1.40;;;12.20;99.90;;;;;;5049530;28;20220;-32
2023/03/17 05:02:10;;;;;;;2.17;1.47;;;12.20;99.90;;;;;;5044449;28;20205;-32
2023/03/17 05:04:37;;;;;;;1.30;1.10;;;12.20;99.90;;;;;;5045555;28;20613;-31
2023/03/17 05:07:04;;;;;;;1.60;0.93;;;12.20;99.90;;;;;;5064918;28;20205;-31
2023/03/17 05:09:36;;;;;;;1.47;1.20;;;12.20;99.90;;;;;;5049253;28;20204;-31
2023/03/17 05:12:04;;;;;;;2.03;1.20;;;12.20;99.90;;;;;;5064681;28;20200;-31
2023/03/17 05:14:33;;;;;;;2.43;1.30;;;12.20;99.90;;;;;;5064458;28;20225;-31
2023/03/17 05:17:06;;;;;;;2.53;1.60;;;12.20;99.90;;;;;;5049716;28;20698;-31
2023/03/17 05:19:33;;;;;;;1.87;1.20;;;12.20;99.90;;;;;;5063929;28;20213;-31
2023/03/17 05:22:02;;;;;;;3.03;1.40;;;12.20;99.90;;;;;;5049128;28;20219;-31
2023/03/17 05:24:32;;;;;;;4.67;1.43;;;12.20;99.90;;;;;;5049231;28;20204;-32
2023/03/17 05:26:59;;;;;;;2.97;1.13;;;12.20;99.90;;;;;;5047989;28;20235;-31
2023/03/17 05:29:29;;;;;;;6.80;1.67;;;12.20;99.90;;;;;;5049262;28;20299;-31
2023/03/17 05:32:01;;;;;;;4.80;1.37;;;12.20;99.90;;;;;;5049541;28;20590;-31
2023/03/17 05:34:28;;;;;;;4.40;1.70;;;12.10;99.90;;;;;;5049034;28;20578;-32
2023/03/17 05:36:58;;;;;;;3.47;1.50;;;12.10;99.90;;;;;;5047397;28;21034;-32
2023/03/17 05:39:25;;;;;;;3.00;1.50;;;12.10;99.90;;;;;;5047843;28;20203;-31
2023/03/17 05:41:54;;;;;;;2.70;1.33;;;12.10;99.90;;;;;;5063828;28;20227;-31
2023/03/17 05:44:23;;;;;;;3.10;1.33;;;12.10;99.90;;;;;;5047598;28;20196;-32
2023/03/17 05:46:50;;;;;;;2.30;1.20;;;12.10;99.90;;;;;;5047295;28;20204;-32
2023/03/17 05:49:19;;;;;;;3.50;1.50;;;12.10;99.90;;;;;;5047255;28;20667;-32
2023/03/17 05:51:48;;;;;;;4.03;1.53;;;12.10;99.90;;;;;;5048721;28;20203;-32
2023/03/17 05:54:16;;;;;;;2.80;1.40;;;12.10;99.90;;;;;;5048817;28;20256;-32
2023/03/17 05:56:47;;;;;;;2.20;1.30;;;12.10;99.90;;;;;;5048651;28;20254;-32
2023/03/17 05:59:15;;;;;;;3.17;1.30;;;12.10;99.90;;;;;;5048691;28;20733;-32
2023/03/17 06:01:45;;;;;;;2.63;1.33;;;12.10;99.90;;;;;;5048549;28;20246;-31
2023/03/17 06:04:15;;;;;;;4.13;1.83;;;12.10;99.90;;;;;;5046858;28;20212;-32
2023/03/17 06:06:45;;;;;;;5.00;1.70;;;12.10;99.90;;;;;;5045921;28;20196;-31
2023/03/17 06:09:12;;;;;;;3.47;1.90;;;12.10;99.90;;;;;;5047077;28;20304;-31
2023/03/17 06:11:42;;;;;;;3.83;1.93;;;12.10;99.90;;;;;;5031012;28;20208;-32
2023/03/17 06:14:15;;;;;;;3.03;1.67;;;12.10;99.90;;;;;;5063333;28;20200;-31
2023/03/17 06:16:42;;;;;;;2.83;1.40;;;12.10;99.90;;;;;;5063448;28;20258;-31
2023/03/17 06:19:12;;;;;;;1.97;1.40;;;12.10;99.90;;;;;;5047329;28;20725;-32
2023/03/17 06:21:40;;;;;;;3.47;1.43;;;12.10;99.90;;;;;;5048642;28;20210;-32
2023/03/17 06:24:10;;;;;;;2.63;1.30;;;12.10;99.90;;;;;;5047725;28;20196;-32
2023/03/17 06:26:39;;;;;;;3.23;1.30;;;12.10;99.90;;;;;;5047606;28;20310;-32
2023/03/17 06:29:11;;;;;;;3.37;1.70;;;12.10;99.90;;;;;;5047688;28;20315;-32
2023/03/17 06:31:41;;;;;;;4.03;1.63;;;12.10;99.90;;;;;;5047432;28;20196;-32
2023/03/17 06:34:08;;;;;;;4.20;1.90;;;12.10;99.90;;;;;;5029615;28;20258;-32
2023/03/17 06:36:38;;;;;;;5.03;2.83;;;12.10;99.90;;;;;;5047322;28;20200;-32
2023/03/17 06:39:05;;;;;;;2.93;1.50;;;12.10;99.90;;;;;;5047381;28;20223;-32
2023/03/17 06:41:32;;;;;;;4.90;1.47;;;12.10;99.90;;;;;;5046384;28;20291;-31
2023/03/17 06:44:00;;;;;;;3.30;1.47;;;12.10;99.90;;;;;;5045735;28;20295;-32
2023/03/17 06:46:30;;;;;;;2.27;1.60;;;12.20;99.90;;;;;;5047869;28;20301;-31
2023/03/17 06:49:00;;;;;;;5.73;1.67;;;12.20;99.90;;;;;;5047371;28;20211;-32
2023/03/17 06:51:31;;;;;;;16.70;2.73;;;12.20;99.90;;;;;;5045713;28;20204;-32
2023/03/17 06:54:00;;;;;;;17.70;3.27;;;12.20;99.90;;;;;;5047178;28;20246;-32
2023/03/17 06:56:27;;;;;;;28.37;4.30;;;12.30;99.90;;;;;;5047051;28;20310;-32
2023/03/17 06:58:57;;;;;;;12.27;2.90;;;12.30;99.90;;;;;;5046718;28;20714;-31
2023/03/17 07:01:27;;;;;;;12.00;2.30;;;12.30;99.90;;;;;;5047560;28;20239;-31
2023/03/17 07:03:59;;;;;;;3.47;1.67;;;12.30;99.90;;;;;;5045073;28;20206;-32
2023/03/17 07:06:29;;;;;;;4.57;1.80;;;12.40;99.90;;;;;;5045495;28;20721;-32
2023/03/17 07:08:59;;;;;;;3.17;1.67;;;12.40;99.90;;;;;;5046875;28;20270;-32
2023/03/17 07:11:29;;;;;;;4.17;1.67;;;12.40;99.90;;;;;;5046898;28;20277;-32
2023/03/17 07:13:56;;;;;;;3.80;1.30;;;12.40;99.90;;;;;;5046602;28;20644;-32
2023/03/17 07:16:24;;;;;;;4.27;1.60;;;12.40;99.90;;;;;;5045097;28;20215;-32
2023/03/17 07:18:54;;;;;;;4.20;1.60;;;12.50;99.90;;;;;;5046576;28;20638;-31
2023/03/17 07:21:23;;;;;;;4.47;1.60;;;12.50;99.90;;;;;;5045690;28;20873;-31
2023/03/17 07:23:50;;;;;;;2.30;1.33;;;12.50;99.90;;;;;;5061509;28;20201;-32
2023/03/17 07:26:20;;;;;;;2.33;1.50;;;12.50;99.90;;;;;;5046552;28;20200;-32
2023/03/17 07:28:50;;;;;;;2.67;1.50;;;12.60;99.90;;;;;;5046625;28;20675;-32
2023/03/17 07:31:22;;;;;;;3.17;1.67;;;12.60;99.90;;;;;;5044901;28;20274;-31
2023/03/17 07:33:52;;;;;;;3.00;1.57;;;12.60;99.90;;;;;;5046413;28;20200;-32
2023/03/17 07:36:27;;;;;;;3.37;1.73;;;12.70;99.90;;;;;;5046243;28;20276;-32
2023/03/17 07:38:54;;;;;;;4.20;2.17;;;12.70;99.90;;;;;;5046039;28;20252;-31
2023/03/17 07:41:24;;;;;;;6.80;2.10;;;12.80;99.90;;;;;;5046070;28;20208;-32
2023/03/17 07:43:51;;;;;;;7.20;2.10;;;12.80;99.90;;;;;;5044133;28;20200;-32
2023/03/17 07:46:21;;;;;;;4.13;2.03;;;12.90;99.90;;;;;;5046126;28;20192;-31
2023/03/17 07:48:49;;;;;;;6.40;2.13;;;13.00;99.90;;;;;;5060746;28;20663;-31
2023/03/17 07:51:26;;;;;;;6.27;2.03;;;13.00;99.90;;;;;;5060726;28;20208;-32
2023/03/17 07:54:02;;;;;;;6.03;1.77;;;13.10;99.90;;;;;;5045590;28;20235;-32
2023/03/17 07:56:35;;;;;;;6.47;1.97;;;13.10;99.90;;;;;;5046188;28;20294;-31
2023/03/17 07:59:09;;;;;;;7.33;2.10;;;13.20;99.90;;;;;;5044415;28;20263;-32
2023/03/17 08:01:37;;;;;;;7.13;2.20;;;13.30;99.90;;;;;;5061027;28;20761;-32
2023/03/17 08:04:09;;;;;;;6.57;2.20;;;13.40;99.90;;;;;;5045733;28;20192;-32
2023/03/17 08:06:41;;;;;;;2.40;1.70;;;13.40;99.90;;;;;;5046060;28;20678;-32
2023/03/17 08:09:10;;;;;;;7.17;2.20;;;13.50;99.90;;;;;;5045421;28;20702;-32
2023/03/17 08:11:37;;;;;;;9.13;2.07;;;13.60;99.90;;;;;;5045990;28;20207;-31
2023/03/17 08:14:05;;;;;;;7.97;1.80;;;13.70;99.90;;;;;;5060549;28;20204;-32
2023/03/17 08:16:35;;;;;;;3.60;1.40;;;13.80;99.90;;;;;;5045377;28;20223;-32
2023/03/17 08:19:03;;;;;;;3.73;1.70;;;13.90;99.90;;;;;;5043910;28;20216;-31
2023/03/17 08:21:30;;;;;;;4.83;1.53;;;14.00;99.90;;;;;;5060554;28;20207;-31
2023/03/17 08:24:00;;;;;;;4.00;1.85;;;14.10;99.90;;;;;;5060214;28;20668;-32
2023/03/17 08:26:30;;;;;;;2.73;1.40;;;14.10;99.90;;;;;;5045693;28;20200;-32
2023/03/17 08:28:57;;;;;;;3.00;1.80;;;14.20;99.90;;;;;;5043587;28;20192;-32
2023/03/17 08:31:26;;;;;;;2.77;1.77;;;14.30;99.90;;;;;;5045831;28;20254;-31
2023/03/17 08:33:56;;;;;;;3.50;1.80;;;14.40;99.90;;;;;;5061114;28;20212;-32
2023/03/17 08:36:24;;;;;;;2.77;1.57;;;14.50;99.90;;;;;;5061204;28;20243;-32
2023/03/17 08:38:52;;;;;;;5.78;2.17;;;14.50;99.90;;;;;;5045920;28;20248;-31
2023/03/17 08:41:22;;;;;;;5.57;2.50;;;14.60;99.90;;;;;;5045947;28;20209;-32
2023/03/17 08:43:52;;;;;;;3.28;1.85;;;14.60;99.90;;;;;;5045642;28;20208;-32
2023/03/17 08:46:25;;;;;;;4.43;2.40;;;14.70;99.90;;;;;;5044774;28;20192;-32
2023/03/17 08:48:57;;;;;;;3.80;1.73;;;14.70;99.90;;;;;;5046070;28;20574;-32
2023/03/17 08:51:27;;;;;;;5.00;1.50;;;14.80;99.90;;;;;;5045620;28;20205;-32
2023/03/17 08:53:58;;;;;;;2.65;1.63;;;14.80;99.90;;;;;;5045235;28;20310;-32
2023/03/17 08:56:30;;;;;;;2.90;1.70;;;14.90;99.90;;;;;;5045511;28;20211;-32
2023/03/17 08:58:58;;;;;;;8.90;2.47;;;15.00;99.90;;;;;;5045522;28;20695;-32
2023/03/17 09:01:27;;;;;;;6.55;2.33;;;15.00;99.90;;;;;;5044002;28;20254;-32
2023/03/17 09:04:01;;;;;;;4.93;1.97;;;15.10;99.90;;;;;;5044988;28;20204;-32
2023/03/17 09:06:29;;;;;;;4.40;2.00;;;15.20;99.90;;;;;;5045248;28;20623;-32
2023/03/17 09:08:59;;;;;;;3.58;1.70;;;15.30;99.90;;;;;;5043570;28;20216;-32
2023/03/17 09:11:28;;;;;;;6.77;1.90;;;15.40;99.90;;;;;;5043574;28;20647;-32
2023/03/17 09:13:56;;;;;;;4.55;2.00;;;15.50;99.90;;;;;;5045338;28;20266;-32
2023/03/17 09:16:24;;;;;;;3.33;1.90;;;15.50;99.90;;;;;;5044877;28;20227;-32
2023/03/17 09:18:56;;;;;;;4.20;1.90;;;15.60;99.90;;;;;;5043407;28;20266;-32
2023/03/17 09:21:23;;;;;;;3.50;1.85;;;15.70;99.90;;;;;;5059500;28;20548;-31
2023/03/17 09:23:53;;;;;;;3.00;2.03;;;15.80;99.90;;;;;;5044936;28;20220;-32
2023/03/17 09:26:24;;;;;;;7.70;2.43;;;15.90;99.90;;;;;;5044752;28;20706;-32
2023/03/17 09:28:51;;;;;;;4.60;2.05;;;16.00;99.90;;;;;;5059483;28;20299;-32
2023/03/17 09:31:21;;;;;;;10.30;2.47;;;16.10;99.90;;;;;;5043520;28;20609;-32
2023/03/17 09:33:51;;;;;;;11.52;2.47;;;16.10;99.90;;;;;;5043248;28;20274;-31
2023/03/17 09:36:21;;;;;;;7.13;1.83;;;16.10;99.90;;;;;;5045387;28;20940;-32
2023/03/17 09:38:51;;;;;;;8.98;1.92;;;16.10;99.90;;;;;;5059497;28;20814;-32
2023/03/17 09:41:48;;;;;;;6.07;1.77;;;16.10;99.90;;;;;;5062748;28;20215;-32
2023/03/17 09:44:47;;;;;;;5.78;1.80;;;16.10;99.90;;;;;;5049291;28;20326;-32
2023/03/17 09:47:29;;;;;;;8.13;2.50;;;16.10;99.90;;;;;;5047479;28;20204;-32
2023/03/17 09:50:03;;;;;;;6.75;1.90;;;16.10;99.90;;;;;;5047498;28;20216;-32
2023/03/17 09:52:36;;;;;;;5.57;2.40;;;16.20;99.90;;;;;;5048681;28;20239;-32
2023/03/17 09:55:07;;;;;;;5.60;1.80;;;16.20;99.90;;;;;;5047039;28;20236;-32
2023/03/17 09:57:41;;;;;;;3.42;1.90;;;16.30;99.90;;;;;;5048300;28;20254;-32
2023/03/17 10:00:13;;;;;;;5.17;2.30;;;16.30;99.90;;;;;;5046878;28;20216;-32
2023/03/17 10:02:42;;;;;;;6.82;2.45;;;16.40;99.90;;;;;;5048847;28;20205;-32
2023/03/17 10:05:12;;;;;;;5.68;1.92;;;16.50;99.90;;;;;;5046665;28;20196;-32
2023/03/17 10:07:58;;;;;;;3.65;1.73;;;16.60;99.90;;;;;;5046813;28;20634;-32
2023/03/17 10:10:43;;;;;;;4.30;1.80;;;16.60;99.90;;;;;;5048534;28;20609;-32
2023/03/17 10:13:47;;;;;;;4.70;2.30;;;16.70;99.90;;;;;;5048147;28;20200;-32
2023/03/17 10:16:23;;;;;;;7.55;2.10;;;16.80;99.90;;;;;;5046820;28;20196;-32
2023/03/17 10:19:04;;;;;;;7.80;2.63;;;16.90;99.90;;;;;;5048115;28;20265;-32
2023/03/17 10:21:42;;;;;;;6.18;1.92;;;16.90;99.90;;;;;;5046562;28;20238;-31
2023/03/17 10:24:11;;;;;;;4.85;1.90;;;17.00;99.90;;;;;;5048189;28;20625;-32
2023/03/17 10:26:52;;;;;;;4.70;1.83;;;17.10;99.90;;;;;;5048158;28;20227;-32
2023/03/17 10:29:22;;;;;;;6.35;2.30;;;17.20;99.90;;;;;;5048006;28;20303;-32
2023/03/17 10:31:55;;;;;;;3.72;1.52;;;17.30;99.90;;;;;;5063244;28;20200;-32
2023/03/17 10:34:32;;;;;;;5.18;1.80;;;17.40;99.90;;;;;;5047835;28;20668;-32
2023/03/17 10:37:18;;;;;;;5.22;2.08;;;17.40;99.90;;;;;;5047051;28;20218;-32
2023/03/17 10:39:53;;;;;;;4.88;1.90;;;17.50;99.90;;;;;;5062737;28;20285;-32
2023/03/17 10:42:28;;;;;;;5.00;1.92;;;17.60;99.90;;;;;;5047565;28;20203;-32
2023/03/17 10:44:55;;;;;;;4.20;1.77;;;17.60;99.90;;;;;;5047819;28;20192;-32
2023/03/17 10:47:33;;;;;;;3.95;1.65;;;17.70;99.90;;;;;;5047846;28;20207;-32
2023/03/17 10:50:27;;;;;;;2.72;1.83;;;17.70;99.90;;;;;;5045960;28;20215;-32
2023/03/17 10:53:03;;;;;;;3.75;1.50;;;17.80;99.90;;;;;;5045114;28;20214;-32
2023/03/17 10:55:36;;;;;;;4.32;1.80;;;17.80;99.90;;;;;;5061504;28;20196;-32
2023/03/17 10:58:13;;;;;;;2.33;1.65;;;17.90;99.90;;;;;;5047942;28;20244;-32
2023/03/17 11:00:59;;;;;;;2.47;1.52;;;17.90;99.90;;;;;;5045992;28;20204;-31
2023/03/17 11:03:38;;;;;;;3.70;2.00;;;17.90;99.90;;;;;;5047389;28;20666;-32
2023/03/17 11:06:11;;;;;;;4.40;1.63;;;18.00;99.90;;;;;;5047203;28;20234;-31
2023/03/17 11:08:41;;;;;;;3.42;1.83;;;18.00;99.90;;;;;;5046951;28;20394;-33
2023/03/17 11:11:46;;;;;;;1.83;1.60;;;18.10;99.90;;;;;;5047173;28;20208;-34
2023/03/17 11:14:17;;;;;;;2.35;1.50;;;18.10;99.90;;;;;;4995870;28;20232;-32
2023/03/17 11:16:55;;;;;;;3.13;1.83;;;18.20;99.90;;;;;;5046891;28;20270;-32
2023/03/17 11:19:48;;;;;;;4.47;2.03;;;18.20;99.90;;;;;;5045633;28;20220;-32
2023/03/17 11:22:37;;;;;;;3.00;2.08;;;18.30;99.90;;;;;;5046961;28;20307;-31
2023/03/17 11:25:18;;;;;;;4.47;2.08;;;18.30;99.90;;;;;;5045614;28;20627;-31
2023/03/17 11:27:48;;;;;;;2.70;1.60;;;18.40;99.90;;;;;;5047116;28;20303;-32
2023/03/17 11:31:06;;;;;;;6.25;1.77;;;18.40;99.90;;;;;;5047235;28;20759;-31
2023/03/17 11:34:11;;;;;;;2.75;1.48;;;18.50;99.90;;;;;;5041981;28;20248;-32
2023/03/17 11:36:54;;;;;;;5.70;1.70;;;18.50;99.90;;;;;;5013969;28;20219;-31
2023/03/17 11:39:35;;;;;;;3.22;2.00;;;18.60;99.90;;;;;;5045049;28;20308;-32
2023/03/17 11:42:19;;;;;;;3.30;1.90;;;18.60;99.90;;;;;;5046023;28;20758;-32
2023/03/17 11:44:59;;;;;;;6.38;1.98;;;18.70;99.90;;;;;;5044724;28;20291;-32
2023/03/17 11:47:30;;;;;;;3.72;1.80;;;18.80;99.90;;;;;;5046204;28;20733;-32
2023/03/17 11:50:28;;;;;;;3.63;1.77;;;18.80;99.90;;;;;;5061542;28;20299;-32
2023/03/17 11:53:20;;;;;;;3.95;1.80;;;18.90;99.90;;;;;;5045971;28;20758;-32
2023/03/17 11:55:50;;;;;;;6.38;1.90;;;18.90;99.90;;;;;;5044273;28;20266;-32
2023/03/17 11:58:37;;;;;;;3.92;1.63;;;19.00;99.90;;;;;;5045757;28;20338;-32
2023/03/17 12:01:11;;;;;;;4.10;1.83;;;19.00;99.90;;;;;;5045849;28;20232;-32
2023/03/17 12:03:44;;;;;;;6.80;1.77;;;19.10;99.90;;;;;;5046085;28;20307;-32
2023/03/17 12:06:20;;;;;;;4.95;1.90;;;19.10;99.90;;;;;;5046105;28;20204;-31
2023/03/17 12:09:00;;;;;;;3.00;1.60;;;19.20;99.90;;;;;;5046210;28;20200;-31
2023/03/17 12:11:32;;;;;;;2.50;1.60;;;19.30;99.90;;;;;;5044706;28;20220;-31
2023/03/17 12:14:04;;;;;;;2.88;1.80;;;19.30;99.90;;;;;;5044432;28;20290;-31
2023/03/17 12:16:55;;;;;;;6.15;2.35;;;19.40;99.90;;;;;;5060849;28;20208;-31
2023/03/17 12:19:32;;;;;;;8.40;2.97;;;19.40;99.90;;;;;;5045941;28;20270;-31
2023/03/17 12:22:21;;;;;;;2.95;1.75;;;19.50;99.90;;;;;;5045806;28;20203;-31
2023/03/17 12:25:15;;;;;;;3.20;1.85;;;19.50;99.90;;;;;;5044422;28;20200;-32
2023/03/17 12:28:00;;;;;;;4.78;1.65;;;19.60;99.90;;;;;;5046187;28;20212;-32
2023/03/17 12:30:37;;;;;;;4.10;1.92;;;19.70;99.90;;;;;;5044755;28;20223;-32
2023/03/17 12:33:27;;;;;;;7.07;2.28;;;19.80;99.90;;;;;;5045815;28;20331;-32
2023/03/17 12:35:59;;;;;;;3.10;1.73;;;19.90;99.90;;;;;;5045611;28;20216;-32
2023/03/17 12:38:34;;;;;;;4.97;2.08;;;19.90;99.90;;;;;;5046045;28;20208;-32
2023/03/17 12:41:14;;;;;;;10.13;3.05;;;19.90;99.90;;;;;;5046050;28;20279;-32
2023/03/17 12:44:13;;;;;;;7.32;2.30;;;20.00;99.90;;;;;;5044678;28;20612;-33
2023/03/17 12:46:48;;;;;;;7.93;2.47;;;20.00;99.90;;;;;;5046104;28;20716;-32
2023/03/17 12:49:44;;;;;;;4.40;1.70;;;20.10;99.90;;;;;;5045840;28;20208;-33
2023/03/17 12:52:19;;;;;;;7.10;2.10;;;20.10;99.90;;;;;;5044154;28;20227;-33
2023/03/17 12:54:52;;;;;;;3.20;1.77;;;20.20;99.90;;;;;;5044108;28;20700;-33
2023/03/17 12:57:29;;;;;;;9.57;2.20;;;20.20;99.90;;;;;;5060936;28;20199;-33
2023/03/17 13:00:14;;;;;;;7.15;2.17;;;20.30;99.90;;;;;;5060405;28;20211;-32
2023/03/17 13:02:50;;;;;;;7.00;2.40;;;20.30;99.90;;;;;;5043904;28;20196;-32
2023/03/17 13:05:32;;;;;;;2.42;1.90;;;20.30;99.90;;;;;;5043752;28;20200;-33
2023/03/17 13:08:09;;;;;;;4.95;1.83;;;20.30;99.90;;;;;;5044184;28;20207;-33
2023/03/17 13:10:46;;;;;;;3.63;1.83;;;20.30;99.90;;;;;;5046091;28;20199;-33
2023/03/17 13:13:43;;;;;;;3.50;2.00;;;20.30;99.90;;;;;;5045565;28;20302;-32